地図

経路データ

SID SEASON NUMBER BASIN SUBBASIN NAME ISO_TIME NATURE LAT LON WMO_WIND WMO_PRES WMO_AGENCY TRACK_TYPE DIST2LAND LANDFALL IFLAG USA_AGENCY USA_ATCF_ID USA_LAT USA_LON USA_RECORD USA_STATUS USA_WIND USA_PRES USA_SSHS USA_R34_NE USA_R34_SE USA_R34_SW USA_R34_NW USA_R50_NE USA_R50_SE USA_R50_SW USA_R50_NW USA_R64_NE USA_R64_SE USA_R64_SW USA_R64_NW USA_POCI USA_ROCI USA_RMW USA_EYE TOKYO_LAT TOKYO_LON TOKYO_GRADE TOKYO_WIND TOKYO_PRES TOKYO_R50_DIR TOKYO_R50_LONG TOKYO_R50_SHORT TOKYO_R30_DIR TOKYO_R30_LONG TOKYO_R30_SHORT TOKYO_LAND CMA_LAT CMA_LON CMA_CAT CMA_WIND CMA_PRES HKO_LAT HKO_LON HKO_CAT HKO_WIND HKO_PRES NEWDELHI_LAT NEWDELHI_LON NEWDELHI_GRADE NEWDELHI_WIND NEWDELHI_PRES NEWDELHI_CI NEWDELHI_DP NEWDELHI_POCI REUNION_LAT REUNION_LON REUNION_TYPE REUNION_WIND REUNION_PRES REUNION_TNUM REUNION_CI REUNION_RMW REUNION_R34_NE REUNION_R34_SE REUNION_R34_SW REUNION_R34_NW REUNION_R50_NE REUNION_R50_SE REUNION_R50_SW REUNION_R50_NW REUNION_R64_NE REUNION_R64_SE REUNION_R64_SW REUNION_R64_NW BOM_LAT BOM_LON BOM_TYPE BOM_WIND BOM_PRES BOM_TNUM BOM_CI BOM_RMW BOM_R34_NE BOM_R34_SE BOM_R34_SW BOM_R34_NW BOM_R50_NE BOM_R50_SE BOM_R50_SW BOM_R50_NW BOM_R64_NE BOM_R64_SE BOM_R64_SW BOM_R64_NW BOM_ROCI BOM_POCI BOM_EYE BOM_POS_METHOD BOM_PRES_METHOD NADI_LAT NADI_LON NADI_CAT NADI_WIND NADI_PRES WELLINGTON_LAT WELLINGTON_LON WELLINGTON_WIND WELLINGTON_PRES DS824_LAT DS824_LON DS824_STAGE DS824_WIND DS824_PRES TD9636_LAT TD9636_LON TD9636_STAGE TD9636_WIND TD9636_PRES TD9635_LAT TD9635_LON TD9635_WIND TD9635_PRES TD9635_ROCI NEUMANN_LAT NEUMANN_LON NEUMANN_CLASS NEUMANN_WIND NEUMANN_PRES MLC_LAT MLC_LON MLC_CLASS MLC_WIND MLC_PRES USA_GUST BOM_GUST BOM_GUST_PER REUNION_GUST REUNION_GUST_PER USA_SEAHGT USA_SEARAD_NE USA_SEARAD_SE USA_SEARAD_SW USA_SEARAD_NW STORM_SPEED STORM_DIR
1863335S17067 1864 29 SI MM NOT_NAMED 1863-12-01 06:00:00 NR -16.6000 67.3000 reunion spur-split 1083 1069 _____O________ -1 -16.6000 67.3000 99 9.90000 3 246
1863335S17067 1864 29 SI MM NOT_NAMED 1863-12-01 09:00:00 NR -16.6563 67.1727 spur-split 1069 1059 _____P________ -1 -16.6563 67.1727 99 3 245
1863335S17067 1864 29 SI MM NOT_NAMED 1863-12-01 12:00:00 NR -16.7155 67.0432 spur-split 1050 1035 _____P________ -1 -16.7155 67.0432 99 3 244
1863335S17067 1864 29 SI MM NOT_NAMED 1863-12-01 15:00:00 NR -16.7807 66.9094 spur-split 1035 1021 _____P________ -1 -16.7807 66.9094 99 3 242
1863335S17067 1864 29 SI MM NOT_NAMED 1863-12-01 18:00:00 NR -16.8548 66.7691 spur-split 1021 1002 _____P________ -1 -16.8548 66.7691 99 3 240
1863335S17067 1864 29 SI MM NOT_NAMED 1863-12-01 21:00:00 NR -16.9408 66.6202 spur-split 1002 987 _____P________ -1 -16.9408 66.6202 99 4 238
1863335S17067 1864 29 SI MM NOT_NAMED 1863-12-02 00:00:00 NR -17.0416 66.4605 spur-split 987 959 _____P________ -1 -17.0416 66.4605 99 4 235
1863335S17067 1864 29 SI MM NOT_NAMED 1863-12-02 03:00:00 NR -17.1604 66.2879 spur-split 959 935 _____P________ -1 -17.1604 66.2879 99 4 233
1863335S17067 1864 29 SI MM NOT_NAMED 1863-12-02 06:00:00 NR -17.3000 66.1000 reunion spur-split 935 907 _____O________ -1 -17.3000 66.1000 99 9.90000 5 231
1863335S17067 1864 29 SI MM NOT_NAMED 1863-12-02 09:00:00 NR -17.4622 65.8957 spur-split 907 883 _____P________ -1 -17.4622 65.8957 99 5 230
1863335S17067 1864 29 SI MM NOT_NAMED 1863-12-02 12:00:00 NR -17.6438 65.6777 spur-split 883 856 _____P________ -1 -17.6438 65.6777 99 6 228
1863335S17067 1864 29 SI MM NOT_NAMED 1863-12-02 15:00:00 NR -17.8405 65.4499 spur-split 846 818 _____P________ -1 -17.8405 65.4499 99 6 227
1863335S17067 1864 29 SI MM NOT_NAMED 1863-12-02 18:00:00 NR -18.0481 65.2161 spur-split 818 787 _____P________ -1 -18.0481 65.2161 99 6 227
1863335S17067 1864 29 SI MM NOT_NAMED 1863-12-02 21:00:00 NR -18.2620 64.9803 spur-split 787 761 _____P________ -1 -18.2620 64.9803 99 6 226
1863335S17067 1864 29 SI MM NOT_NAMED 1863-12-03 00:00:00 NR -18.4782 64.7463 spur-split 751 724 _____P________ -1 -18.4782 64.7463 99 6 226
1863335S17067 1864 29 SI MM NOT_NAMED 1863-12-03 03:00:00 NR -18.6923 64.5182 spur-split 724 698 _____P________ -1 -18.6923 64.5182 99 6 225
1863335S17067 1864 29 SI MM NOT_NAMED 1863-12-03 06:00:00 NR -18.9000 64.3000 reunion spur-split 698 672 _____O________ -1 -18.9000 64.3000 99 9.90000 5 225
1863335S17067 1864 29 SI MM NOT_NAMED 1863-12-03 09:00:00 NR -19.0705 64.1150 spur-split 672 650 _____P________ -1 -19.0705 64.1150 99 5 225
1863335S17067 1864 29 SI MM NOT_NAMED 1863-12-03 12:00:00 NR -19.2352 63.9398 spur-split 650 635 _____P________ -1 -19.2352 63.9398 99 5 225
1863335S17067 1864 29 SI MM NOT_NAMED 1863-12-03 15:00:00 NR -19.3976 63.7709 spur-split 635 611 _____P________ -1 -19.3976 63.7709 99 5 224
1863335S17067 1864 29 SI MM NOT_NAMED 1863-12-03 18:00:00 NR -19.5614 63.6049 spur-split 611 588 _____P________ -1 -19.5614 63.6049 99 5 223
1863335S17067 1864 29 SI MM NOT_NAMED 1863-12-03 21:00:00 NR -19.7300 63.4383 spur-split 588 575 _____P________ -1 -19.7300 63.4383 99 5 222
1863335S17067 1864 29 SI MM NOT_NAMED 1863-12-04 00:00:00 NR -19.9070 63.2676 spur-split 575 553 _____P________ -1 -19.9070 63.2676 99 5 222
1863335S17067 1864 29 SI MM NOT_NAMED 1863-12-04 03:00:00 NR -20.0958 63.0894 spur-split 553 531 _____P________ -1 -20.0958 63.0894 99 5 221
1863335S17067 1864 29 SI MM NOT_NAMED 1863-12-04 06:00:00 NR -20.3000 62.9000 reunion spur-split 531 511 _____O________ -1 -20.3000 62.9000 99 9.90000 6 221
1863335S17067 1864 29 SI MM NOT_NAMED 1863-12-04 09:00:00 NR -20.5494 62.6695 spur-split 511 482 _____P________ -1 -20.5494 62.6695 99 7 221
1863335S17067 1864 29 SI MM NOT_NAMED 1863-12-04 12:00:00 NR -20.8159 62.4263 spur-split 482 464 _____P________ -1 -20.8159 62.4263 99 7 220
1863335S17067 1864 29 SI MM NOT_NAMED 1863-12-04 15:00:00 NR -21.0929 62.1756 spur-split 466 443 _____P________ -1 -21.0929 62.1756 99 7 220
1863335S17067 1864 29 SI MM NOT_NAMED 1863-12-04 18:00:00 NR -21.3735 61.9228 spur-split 443 430 _____P________ -1 -21.3735 61.9228 99 7 220
1863335S17067 1864 29 SI MM NOT_NAMED 1863-12-04 21:00:00 NR -21.6511 61.6733 spur-split 433 414 _____P________ -1 -21.6511 61.6733 99 7 220
1863335S17067 1864 29 SI MM NOT_NAMED 1863-12-05 00:00:00 NR -21.9192 61.4326 spur-split 414 404 _____P________ -1 -21.9192 61.4326 99 7 220
1863335S17067 1864 29 SI MM NOT_NAMED 1863-12-05 03:00:00 NR -22.1710 61.2062 spur-split 409 400 _____P________ -1 -22.1710 61.2062 99 6 220
1863335S17067 1864 29 SI MM NOT_NAMED 1863-12-05 06:00:00 NR -22.4000 61.0000 reunion spur-split 402 397 _____O________ -1 -22.4000 61.0000 99 9.90000 6 220
1863335S17067 1864 29 SI MM NOT_NAMED 1863-12-05 09:00:00 NR -22.6014 60.8181 spur-split 397 395 _____P________ -1 -22.6014 60.8181 99 5 220
1863335S17067 1864 29 SI MM NOT_NAMED 1863-12-05 12:00:00 NR -22.7772 60.6588 spur-split 402 394 _____P________ -1 -22.7772 60.6588 99 4 220
1863335S17067 1864 29 SI MM NOT_NAMED 1863-12-05 15:00:00 NR -22.9310 60.5191 spur-split 394 394 _____P________ -1 -22.9310 60.5191 99 4 220
1863335S17067 1864 29 SI MM NOT_NAMED 1863-12-05 18:00:00 NR -23.0667 60.3957 spur-split 402 395 _____P________ -1 -23.0667 60.3957 99 3 220
1863335S17067 1864 29 SI MM NOT_NAMED 1863-12-05 21:00:00 NR -23.1878 60.2854 spur-split 403 397 _____P________ -1 -23.1878 60.2854 99 3 220
1863335S17067 1864 29 SI MM NOT_NAMED 1863-12-06 00:00:00 NR -23.2979 60.1848 spur-split 405 399 _____P________ -1 -23.2979 60.1848 99 3 220
1863335S17067 1864 29 SI MM NOT_NAMED 1863-12-06 03:00:00 NR -23.4008 60.0908 spur-split 407 407 _____P________ -1 -23.4008 60.0908 99 3 220
1863335S17067 1864 29 SI MM NOT_NAMED 1863-12-06 06:00:00 NR -23.5000 60.0000 reunion spur-split 410 _____O________ -1 -23.5000 60.0000 99 9.90000 3 218

IBTrACS Databaseについて

本データベースは、米国NOAAが公開する1842年以降の世界の熱帯低気圧のベストトラックデータアーカイブInternational Best Track Archive for Climate Stewardship (IBTrACS)を、ウェブで閲覧しやすい形式に変換したものです。

最終更新日:2021-11-26